createdAt,value
2022-10-14T00:01:08.556Z,5.03
2022-10-14T00:03:36.773Z,5.47
2022-10-14T00:06:12.965Z,5.57
2022-10-14T00:08:41.204Z,4.93
2022-10-14T00:11:19.593Z,4.60
2022-10-14T00:13:46.919Z,4.47
2022-10-14T00:16:23.248Z,5.30
2022-10-14T00:18:50.881Z,5.10
2022-10-14T00:21:18.322Z,4.90
2022-10-14T00:23:46.191Z,5.67
2022-10-14T00:26:22.566Z,5.27
2022-10-14T00:28:49.913Z,4.77
2022-10-14T00:31:19.931Z,5.70
2022-10-14T00:33:47.841Z,5.93
2022-10-14T00:36:17.361Z,6.23
2022-10-14T00:38:45.684Z,5.50
2022-10-14T00:41:17.304Z,6.90
2022-10-14T00:44:04.558Z,7.23
2022-10-14T00:46:37.212Z,8.23
2022-10-14T00:49:12.073Z,6.97
2022-10-14T00:51:40.912Z,6.67
2022-10-14T00:54:08.128Z,6.47
2022-10-14T00:56:36.164Z,6.60
2022-10-14T00:59:04.841Z,5.87
2022-10-14T01:01:32.190Z,7.37
2022-10-14T01:03:58.927Z,6.17
2022-10-14T01:06:37.835Z,5.20
2022-10-14T01:09:23.126Z,5.40
2022-10-14T01:12:27.360Z,5.57
2022-10-14T01:15:05.005Z,6.27
2022-10-14T01:17:34.833Z,5.77
2022-10-14T01:20:36.844Z,6.70
2022-10-14T01:23:24.840Z,5.83
2022-10-14T01:26:06.768Z,5.40
2022-10-14T01:28:55.169Z,6.93
2022-10-14T01:31:25.770Z,5.27
2022-10-14T01:33:57.838Z,5.50
2022-10-14T01:36:35.999Z,4.90
2022-10-14T01:39:23.839Z,5.07
2022-10-14T01:42:11.655Z,5.20
2022-10-14T01:44:42.412Z,4.73
2022-10-14T01:47:13.601Z,5.27
2022-10-14T01:49:45.947Z,4.63
2022-10-14T01:52:22.801Z,4.73
2022-10-14T01:54:53.953Z,4.37
2022-10-14T01:57:26.013Z,3.90
2022-10-14T01:59:55.446Z,4.60
2022-10-14T02:02:24.325Z,4.40
2022-10-14T02:04:51.653Z,4.80
2022-10-14T02:07:27.563Z,5.00
2022-10-14T02:10:03.063Z,5.10
2022-10-14T02:12:45.533Z,4.67
2022-10-14T02:15:34.653Z,4.73
2022-10-14T02:18:10.506Z,4.13
2022-10-14T02:20:42.704Z,4.50
2022-10-14T02:23:28.006Z,4.00
2022-10-14T02:25:56.584Z,4.07
2022-10-14T02:28:27.392Z,4.10
2022-10-14T02:31:03.776Z,4.10
2022-10-14T02:33:36.612Z,4.67
2022-10-14T02:36:07.558Z,4.40
2022-10-14T02:38:37.731Z,4.57
2022-10-14T02:41:07.960Z,3.90
2022-10-14T02:43:35.677Z,4.20
2022-10-14T02:46:06.214Z,4.40
2022-10-14T02:48:33.856Z,4.60
2022-10-14T02:51:00.602Z,4.63
2022-10-14T02:53:27.470Z,4.60
2022-10-14T02:55:54.228Z,4.40
2022-10-14T02:58:20.967Z,4.67
2022-10-14T03:00:50.050Z,4.60
2022-10-14T03:03:18.260Z,4.27
2022-10-14T03:05:47.507Z,4.53
2022-10-14T03:08:16.533Z,4.40
2022-10-14T03:10:47.593Z,4.23
2022-10-14T03:13:15.808Z,4.37
2022-10-14T03:15:49.321Z,4.10
2022-10-14T03:18:17.724Z,4.73
2022-10-14T03:20:47.755Z,4.63
2022-10-14T03:23:26.287Z,4.97
2022-10-14T03:25:54.354Z,5.27
2022-10-14T03:28:26.130Z,5.07
2022-10-14T03:31:01.285Z,5.60
2022-10-14T03:33:41.177Z,6.20
2022-10-14T03:36:12.731Z,6.60
2022-10-14T03:38:46.265Z,6.20
2022-10-14T03:41:23.728Z,7.87
2022-10-14T03:43:52.528Z,8.73
2022-10-14T03:46:20.013Z,8.03
2022-10-14T03:48:50.033Z,8.67
2022-10-14T03:51:17.348Z,9.27
2022-10-14T03:53:45.744Z,9.73
2022-10-14T03:56:16.366Z,9.60
2022-10-14T03:58:44.498Z,9.70
2022-10-14T04:01:14.117Z,8.67
2022-10-14T04:04:03.435Z,8.17
2022-10-14T04:06:31.211Z,8.37
2022-10-14T04:09:00.198Z,7.67
2022-10-14T04:11:32.413Z,7.57
2022-10-14T04:14:04.656Z,6.60
2022-10-14T04:16:35.856Z,6.87
2022-10-14T04:19:07.936Z,5.63
2022-10-14T04:21:34.793Z,5.87
2022-10-14T04:24:06.103Z,5.67
2022-10-14T04:26:51.419Z,5.83
2022-10-14T04:29:27.230Z,5.20
2022-10-14T04:32:03.665Z,5.30
2022-10-14T04:34:30.872Z,5.00
2022-10-14T04:36:58.058Z,5.00
2022-10-14T04:39:40.486Z,5.73
2022-10-14T04:42:07.497Z,5.43
2022-10-14T04:44:34.486Z,6.97
2022-10-14T04:47:02.476Z,6.77
2022-10-14T04:49:29.870Z,7.03
2022-10-14T04:52:09.706Z,6.77
2022-10-14T04:55:06.254Z,7.13
2022-10-14T04:57:39.664Z,5.57
2022-10-14T05:00:07.659Z,5.20
2022-10-14T05:02:49.342Z,6.83
2022-10-14T05:05:16.970Z,6.37
2022-10-14T05:07:48.193Z,7.23
2022-10-14T05:10:27.189Z,6.80
2022-10-14T05:12:55.242Z,7.30
2022-10-14T05:15:24.434Z,7.00
2022-10-14T05:18:11.834Z,7.13
2022-10-14T05:20:52.478Z,8.23
2022-10-14T05:23:22.534Z,7.23
2022-10-14T05:25:51.822Z,6.30
2022-10-14T05:28:20.179Z,6.57
2022-10-14T05:30:51.157Z,5.70
2022-10-14T05:33:19.171Z,5.63
2022-10-14T05:35:58.629Z,5.80
2022-10-14T05:38:28.007Z,5.93
2022-10-14T05:40:56.766Z,6.97
2022-10-14T05:43:29.386Z,7.17
2022-10-14T05:45:59.748Z,6.40
2022-10-14T05:48:29.182Z,6.30
2022-10-14T05:51:01.358Z,6.37
2022-10-14T05:53:29.249Z,6.77
2022-10-14T05:56:03.754Z,7.20
2022-10-14T05:58:31.676Z,6.73
2022-10-14T06:01:04.876Z,6.37
2022-10-14T06:03:32.450Z,7.13
2022-10-14T06:05:59.767Z,6.27
2022-10-14T06:08:27.308Z,7.63
2022-10-14T06:10:54.606Z,8.33
2022-10-14T06:13:22.048Z,6.30
2022-10-14T06:15:49.044Z,7.93
2022-10-14T06:18:15.879Z,6.20
2022-10-14T06:20:42.722Z,6.40
2022-10-14T06:23:09.457Z,6.07
2022-10-14T06:25:36.722Z,6.60
2022-10-14T06:28:05.385Z,5.53
2022-10-14T06:30:33.063Z,5.60
2022-10-14T06:32:59.834Z,5.77
2022-10-14T06:35:26.833Z,7.43
2022-10-14T06:37:53.609Z,6.47
2022-10-14T06:40:20.983Z,5.63
2022-10-14T06:42:47.763Z,5.87
2022-10-14T06:45:14.761Z,5.90
2022-10-14T06:47:42.385Z,5.30
2022-10-14T06:50:09.300Z,5.30
2022-10-14T06:52:36.213Z,5.53
2022-10-14T06:55:03.031Z,5.53
2022-10-14T06:57:29.817Z,6.30
2022-10-14T06:59:57.028Z,5.50
2022-10-14T07:02:24.378Z,6.40
2022-10-14T07:04:51.411Z,5.80
2022-10-14T07:07:18.155Z,6.20
2022-10-14T07:09:45.080Z,6.40
2022-10-14T07:12:11.902Z,6.63
2022-10-14T07:14:38.651Z,6.67
2022-10-14T07:17:07.834Z,6.83
2022-10-14T07:19:34.825Z,7.20
2022-10-14T07:22:01.652Z,7.37
2022-10-14T07:24:28.569Z,7.67
2022-10-14T07:26:55.366Z,7.00
2022-10-14T07:29:22.139Z,6.53
2022-10-14T07:31:48.950Z,7.30
2022-10-14T07:34:15.875Z,6.40
2022-10-14T07:36:42.639Z,8.33
2022-10-14T07:39:09.816Z,7.60
2022-10-14T07:41:36.852Z,7.97
2022-10-14T07:44:08.468Z,7.70
2022-10-14T07:46:37.920Z,7.67
2022-10-14T07:49:11.438Z,8.80
2022-10-14T07:51:39.178Z,9.03
2022-10-14T07:54:09.903Z,9.07
2022-10-14T07:56:38.737Z,9.03
2022-10-14T07:59:05.530Z,8.60
2022-10-14T08:01:32.507Z,9.33
2022-10-14T08:03:59.482Z,9.57
2022-10-14T08:06:26.722Z,8.87
2022-10-14T08:08:53.935Z,9.77
2022-10-14T08:11:26.531Z,10.30
2022-10-14T08:13:54.256Z,9.93
2022-10-14T08:16:29.252Z,9.70
2022-10-14T08:18:57.996Z,10.23
2022-10-14T08:21:25.624Z,10.93
2022-10-14T08:23:53.225Z,11.17
2022-10-14T08:26:22.759Z,10.13
2022-10-14T08:28:51.088Z,12.57
2022-10-14T08:31:18.102Z,11.57
2022-10-14T08:33:44.981Z,13.80
2022-10-14T08:36:12.125Z,11.50
2022-10-14T08:38:38.865Z,11.53
2022-10-14T08:41:36.899Z,12.00
2022-10-14T08:44:20.950Z,10.10
2022-10-14T08:46:54.419Z,11.57
2022-10-14T08:49:30.596Z,12.83
2022-10-14T08:52:10.845Z,12.50
2022-10-14T08:54:45.141Z,12.00
2022-10-14T08:57:17.990Z,12.10
2022-10-14T08:59:45.253Z,12.43
2022-10-14T09:02:24.089Z,12.47
2022-10-14T09:04:50.987Z,12.63
2022-10-14T09:07:20.008Z,12.73
2022-10-14T09:10:03.403Z,13.00
2022-10-14T09:12:35.060Z,12.43
2022-10-14T09:15:16.763Z,13.20
2022-10-14T09:17:52.646Z,14.03
2022-10-14T09:20:25.299Z,14.20
2022-10-14T09:23:05.253Z,13.50
2022-10-14T09:25:36.927Z,13.97
2022-10-14T09:28:03.774Z,15.53
2022-10-14T09:30:37.766Z,13.80
2022-10-14T09:33:05.663Z,13.97
2022-10-14T09:35:37.627Z,14.37
2022-10-14T09:38:04.726Z,13.40
2022-10-14T09:40:37.277Z,14.60
2022-10-14T09:43:10.283Z,13.43
2022-10-14T09:45:57.889Z,13.63
2022-10-14T09:48:27.517Z,12.67
2022-10-14T09:50:56.836Z,13.70
2022-10-14T09:53:33.445Z,12.47
2022-10-14T09:56:02.952Z,13.33
2022-10-14T09:58:35.580Z,12.80
2022-10-14T10:01:03.143Z,12.13
2022-10-14T10:03:32.989Z,12.00
2022-10-14T10:06:12.036Z,11.85
2022-10-14T10:08:54.009Z,13.90
2022-10-14T10:11:37.565Z,12.40
2022-10-14T10:14:24.143Z,13.70
2022-10-14T10:17:10.118Z,12.90
2022-10-14T10:19:39.709Z,14.60
2022-10-14T10:22:17.025Z,12.93
2022-10-14T10:24:45.127Z,12.77
2022-10-14T10:27:21.145Z,14.00
2022-10-14T10:29:48.143Z,13.63
2022-10-14T10:32:21.354Z,12.63
2022-10-14T10:35:08.105Z,13.33
2022-10-14T10:38:10.032Z,13.63
2022-10-14T10:40:41.739Z,11.47
2022-10-14T10:43:42.930Z,12.70
2022-10-14T10:46:30.059Z,12.20
2022-10-14T10:49:32.412Z,12.60
2022-10-14T10:52:16.087Z,14.97
2022-10-14T10:55:13.387Z,12.53
2022-10-14T10:58:10.015Z,12.67
2022-10-14T11:00:48.349Z,13.33
2022-10-14T11:04:07.617Z,12.77
2022-10-14T11:07:04.473Z,13.17
2022-10-14T11:10:00.451Z,12.50
2022-10-14T11:12:42.633Z,11.93
2022-10-14T11:15:16.226Z,13.00
2022-10-14T11:18:03.869Z,13.60
2022-10-14T11:21:05.134Z,13.00
2022-10-14T11:23:48.975Z,12.87
2022-10-14T11:26:20.586Z,13.17
2022-10-14T11:29:09.963Z,12.30
2022-10-14T11:31:51.370Z,11.83
2022-10-14T11:34:56.461Z,11.43
2022-10-14T11:37:44.776Z,11.20
2022-10-14T11:40:58.132Z,10.63
2022-10-14T11:43:48.098Z,10.07
2022-10-14T11:46:20.221Z,10.25
2022-10-14T11:49:04.093Z,10.03
2022-10-14T11:51:36.610Z,10.27
2022-10-14T11:54:31.448Z,11.33
2022-10-14T11:57:02.628Z,10.40
2022-10-14T11:59:36.863Z,9.57
2022-10-14T12:02:39.415Z,10.27
2022-10-14T12:05:33.069Z,11.23
2022-10-14T12:08:33.175Z,11.47
2022-10-14T12:11:09.362Z,9.63
2022-10-14T12:13:42.068Z,9.37
2022-10-14T12:16:17.484Z,10.93
2022-10-14T12:18:49.102Z,9.50
2022-10-14T12:21:28.080Z,9.47
2022-10-14T12:24:14.806Z,8.00
2022-10-14T12:27:16.807Z,7.67
2022-10-14T12:29:47.315Z,7.63
2022-10-14T12:32:16.950Z,8.47
2022-10-14T12:34:44.544Z,8.17
2022-10-14T12:37:31.705Z,7.60
2022-10-14T12:40:07.812Z,7.67
2022-10-14T12:42:44.098Z,7.90
2022-10-14T12:45:16.640Z,7.67
2022-10-14T12:47:44.068Z,7.97
2022-10-14T12:50:17.729Z,8.63
2022-10-14T12:52:48.168Z,8.50
2022-10-14T12:55:21.142Z,8.53
2022-10-14T12:58:05.584Z,8.83
2022-10-14T13:00:36.925Z,10.10
2022-10-14T13:03:05.907Z,9.37
2022-10-14T13:05:42.334Z,9.83
2022-10-14T13:08:19.929Z,10.30
2022-10-14T13:11:09.486Z,9.80
2022-10-14T13:13:42.358Z,10.13
2022-10-14T13:16:21.205Z,10.30
2022-10-14T13:18:51.396Z,10.23
2022-10-14T13:21:50.648Z,9.73
2022-10-14T13:24:26.839Z,10.27
2022-10-14T13:26:53.570Z,10.30
2022-10-14T13:29:20.255Z,10.93
2022-10-14T13:31:53.105Z,12.23
2022-10-14T13:34:35.150Z,11.47
2022-10-14T13:37:20.832Z,12.47
2022-10-14T13:39:47.691Z,12.17
2022-10-14T13:42:28.910Z,12.50
2022-10-14T13:45:05.584Z,13.53
2022-10-14T13:47:34.940Z,14.03
2022-10-14T13:50:04.538Z,12.87
2022-10-14T13:52:33.915Z,13.07
2022-10-14T13:55:14.879Z,14.40
2022-10-14T13:58:12.957Z,12.37
2022-10-14T14:00:57.896Z,11.97
2022-10-14T14:03:30.409Z,11.70
2022-10-14T14:05:59.470Z,12.60
2022-10-14T14:08:49.307Z,14.30
2022-10-14T14:11:25.294Z,14.90
2022-10-14T14:14:30.869Z,15.30
2022-10-14T14:16:59.892Z,15.37
2022-10-14T14:19:35.499Z,15.73
2022-10-14T14:22:17.268Z,16.27
2022-10-14T14:24:45.194Z,16.83
2022-10-14T14:27:24.338Z,18.33
2022-10-14T14:29:52.927Z,18.87
2022-10-14T14:32:23.450Z,21.17
2022-10-14T14:34:51.261Z,19.13
2022-10-14T14:40:17.546Z,18.20
2022-10-14T14:42:47.023Z,19.50
2022-10-14T14:45:29.241Z,20.30
2022-10-14T14:47:59.023Z,19.80
2022-10-14T14:50:40.151Z,18.83
2022-10-14T14:53:29.409Z,19.83
2022-10-14T14:55:56.182Z,19.95
2022-10-14T14:58:32.042Z,19.37
2022-10-14T15:00:59.333Z,18.23
2022-10-14T15:03:29.062Z,17.33
2022-10-14T15:06:03.740Z,18.40
2022-10-14T15:08:37.885Z,17.70
2022-10-14T15:11:05.097Z,17.27
2022-10-14T15:13:37.989Z,16.37
2022-10-14T15:16:05.520Z,17.05
2022-10-14T15:18:32.376Z,17.23
2022-10-14T15:21:13.936Z,17.42
2022-10-14T15:23:40.994Z,16.80
2022-10-14T15:26:31.262Z,16.85
2022-10-14T15:29:22.697Z,16.87
2022-10-14T15:32:01.781Z,15.95
2022-10-14T15:34:28.927Z,16.58
2022-10-14T15:36:55.815Z,17.00
2022-10-14T15:39:22.888Z,17.25
2022-10-14T15:41:49.643Z,16.88
2022-10-14T15:44:16.439Z,16.67
2022-10-14T15:47:03.710Z,17.08
2022-10-14T15:49:41.498Z,16.48
2022-10-14T15:52:14.652Z,16.67
2022-10-14T15:54:41.773Z,18.25
2022-10-14T15:57:12.528Z,17.95
2022-10-14T15:59:42.623Z,16.70
2022-10-14T16:02:19.528Z,15.77
2022-10-14T16:05:07.047Z,16.05
2022-10-14T16:07:33.383Z,15.52
2022-10-14T16:10:00.274Z,15.27
2022-10-14T16:12:27.087Z,14.53
2022-10-14T16:14:53.977Z,13.70
2022-10-14T16:17:21.142Z,13.50
2022-10-14T16:19:49.516Z,12.20
2022-10-14T16:22:16.317Z,11.77
2022-10-14T16:24:43.037Z,11.57
2022-10-14T16:27:09.806Z,11.27
2022-10-14T16:29:36.631Z,10.98
2022-10-14T16:32:03.414Z,10.23
2022-10-14T16:34:30.209Z,10.38
2022-10-14T16:36:57.042Z,9.70
2022-10-14T16:39:23.835Z,10.50
2022-10-14T16:41:50.750Z,10.43
2022-10-14T16:44:27.522Z,8.77
2022-10-14T16:47:14.433Z,9.20
2022-10-14T16:49:43.174Z,9.47
2022-10-14T16:52:10.334Z,8.63
2022-10-14T16:54:37.173Z,9.43
2022-10-14T16:57:05.226Z,9.70
2022-10-14T16:59:32.716Z,9.50
2022-10-14T17:02:00.051Z,10.30
2022-10-14T17:04:27.173Z,9.63
2022-10-14T17:07:07.173Z,9.80
2022-10-14T17:09:39.330Z,10.70
2022-10-14T17:12:09.435Z,10.05
2022-10-14T17:14:39.664Z,11.10
2022-10-14T17:17:06.493Z,11.18
2022-10-14T17:19:33.278Z,11.03
2022-10-14T17:22:03.375Z,10.57
2022-10-14T17:24:30.321Z,10.07
2022-10-14T17:26:57.189Z,11.47
2022-10-14T17:29:24.200Z,12.13
2022-10-14T17:31:51.493Z,11.60
2022-10-14T17:34:18.416Z,11.32
2022-10-14T17:36:45.181Z,11.90
2022-10-14T17:39:18.666Z,11.17
2022-10-14T17:41:51.486Z,11.37
2022-10-14T17:44:18.697Z,11.80
2022-10-14T17:46:45.482Z,11.80
2022-10-14T17:49:12.476Z,10.63
2022-10-14T17:51:39.411Z,11.60
2022-10-14T17:54:09.466Z,10.50
2022-10-14T17:56:37.231Z,10.13
2022-10-14T17:59:07.175Z,9.83
2022-10-14T18:02:01.062Z,9.45
2022-10-14T18:04:21.603Z,9.57
2022-10-14T18:06:48.654Z,10.23
2022-10-14T18:09:15.508Z,8.50
2022-10-14T18:12:07.827Z,9.18
2022-10-14T18:14:30.537Z,9.20
2022-10-14T18:16:59.454Z,8.45
2022-10-14T18:19:27.128Z,8.52
2022-10-14T18:21:54.021Z,8.23
2022-10-14T18:24:20.774Z,8.20
2022-10-14T18:26:53.301Z,8.00
2022-10-14T18:29:20.262Z,7.97
2022-10-14T18:31:49.195Z,8.50
2022-10-14T18:34:17.756Z,7.72
2022-10-14T18:36:44.730Z,8.40
2022-10-14T18:39:12.338Z,7.95
2022-10-14T18:41:39.202Z,7.90
2022-10-14T18:44:06.408Z,7.93
2022-10-14T18:46:36.593Z,8.50
2022-10-14T18:49:05.140Z,8.40
2022-10-14T18:51:35.091Z,8.73
2022-10-14T18:54:12.475Z,8.55
2022-10-14T18:56:39.309Z,8.65
2022-10-14T18:59:10.079Z,9.73
2022-10-14T19:01:39.223Z,9.53
2022-10-14T19:04:08.436Z,9.40
2022-10-14T19:06:35.806Z,10.70
2022-10-14T19:09:03.843Z,10.43
2022-10-14T19:11:32.704Z,9.82
2022-10-14T19:14:01.026Z,10.45
2022-10-14T19:16:33.778Z,10.55
2022-10-14T19:19:04.455Z,10.57
2022-10-14T19:21:31.746Z,10.97
2022-10-14T19:24:00.238Z,11.27
2022-10-14T19:26:33.630Z,10.63
2022-10-14T19:29:02.912Z,11.63
2022-10-14T19:31:33.858Z,11.17
2022-10-14T19:34:02.561Z,11.70
2022-10-14T19:36:29.593Z,10.80
2022-10-14T19:38:58.498Z,10.52
2022-10-14T19:41:29.791Z,11.33
2022-10-14T19:43:58.779Z,11.60
2022-10-14T19:46:27.843Z,10.83
2022-10-14T19:48:56.211Z,11.30
2022-10-14T19:51:23.476Z,10.93
2022-10-14T19:53:50.425Z,11.20
2022-10-14T19:56:17.224Z,12.57
2022-10-14T19:58:45.002Z,11.00
2022-10-14T20:01:17.491Z,11.33
2022-10-14T20:03:44.617Z,10.87
2022-10-14T20:06:13.498Z,12.07
2022-10-14T20:08:40.453Z,11.67
2022-10-14T20:11:09.579Z,12.20
2022-10-14T20:13:39.442Z,12.57
2022-10-14T20:16:08.792Z,12.80
2022-10-14T20:18:36.336Z,12.57
2022-10-14T20:21:05.703Z,13.13
2022-10-14T20:23:38.315Z,13.23
2022-10-14T20:26:21.805Z,13.60
2022-10-14T20:28:49.891Z,13.73
2022-10-14T20:31:19.767Z,13.40
2022-10-14T20:33:46.685Z,13.50
2022-10-14T20:36:16.285Z,13.60
2022-10-14T20:38:44.361Z,13.47
2022-10-14T20:41:18.700Z,14.80
2022-10-14T20:43:45.972Z,14.17
2022-10-14T20:46:13.391Z,15.33
2022-10-14T20:48:40.386Z,14.17
2022-10-14T20:51:13.192Z,14.57
2022-10-14T20:56:11.043Z,15.30
2022-10-14T20:58:38.289Z,14.00
2022-10-14T21:01:13.862Z,14.07
2022-10-14T21:03:41.767Z,15.07
2022-10-14T21:06:12.947Z,15.37
2022-10-14T21:08:40.212Z,13.30
2022-10-14T21:11:13.984Z,14.77
2022-10-14T21:13:51.179Z,14.67
2022-10-14T21:16:22.206Z,13.83
2022-10-14T21:18:55.218Z,12.53
2022-10-14T21:21:26.695Z,13.63
2022-10-14T21:23:54.552Z,14.00
2022-10-14T21:26:22.289Z,14.17
2022-10-14T21:28:49.354Z,13.57
2022-10-14T21:31:19.044Z,13.70
2022-10-14T21:33:47.750Z,14.30
2022-10-14T21:36:16.232Z,13.87
2022-10-14T21:38:43.288Z,12.70
2022-10-14T21:41:10.218Z,13.47
2022-10-14T21:43:37.971Z,13.17
2022-10-14T21:46:07.115Z,12.83
2022-10-14T21:48:34.241Z,12.53
2022-10-14T21:51:05.640Z,12.17
2022-10-14T21:53:33.265Z,12.30
2022-10-14T21:56:00.295Z,13.63
2022-10-14T21:58:27.646Z,12.87
2022-10-14T22:01:27.020Z,14.37
2022-10-14T22:03:59.904Z,13.13
2022-10-14T22:06:27.527Z,13.30
2022-10-14T22:08:57.166Z,12.67
2022-10-14T22:11:32.887Z,13.07
2022-10-14T22:14:01.956Z,13.13
2022-10-14T22:16:29.723Z,13.30
2022-10-14T22:18:59.159Z,12.60
2022-10-14T22:21:27.862Z,13.33
2022-10-14T22:23:54.916Z,13.30
2022-10-14T22:26:24.594Z,12.57
2022-10-14T22:28:59.117Z,14.87
2022-10-14T22:31:26.496Z,13.30
2022-10-14T22:33:53.238Z,12.33
2022-10-14T22:36:24.090Z,13.20
2022-10-14T22:38:53.038Z,12.63
2022-10-14T22:41:20.927Z,13.87
2022-10-14T22:43:53.454Z,13.40
2022-10-14T22:46:22.258Z,12.90
2022-10-14T22:48:50.357Z,13.70
2022-10-14T22:51:20.051Z,13.90
2022-10-14T22:53:47.070Z,13.60
2022-10-14T22:56:17.596Z,13.20
2022-10-14T22:58:44.427Z,12.80
2022-10-14T23:01:15.090Z,14.30
2022-10-14T23:03:42.698Z,13.13
2022-10-14T23:06:12.318Z,13.90
2022-10-14T23:08:39.686Z,14.37
2022-10-14T23:11:07.387Z,14.53
2022-10-14T23:13:34.422Z,13.93
2022-10-14T23:16:06.901Z,14.47
2022-10-14T23:18:36.911Z,14.63
2022-10-14T23:21:13.354Z,15.60
2022-10-14T23:23:40.597Z,15.27
2022-10-14T23:26:13.102Z,15.60
2022-10-14T23:28:40.338Z,15.50
2022-10-14T23:31:15.962Z,15.57
2022-10-14T23:33:43.091Z,15.27
2022-10-14T23:36:12.277Z,14.93
2022-10-14T23:38:40.195Z,15.30
2022-10-14T23:41:09.575Z,16.10
2022-10-14T23:43:36.725Z,14.67
2022-10-14T23:46:04.500Z,15.33
2022-10-14T23:48:31.729Z,16.43
2022-10-14T23:50:58.588Z,15.00
2022-10-14T23:53:26.562Z,15.93
2022-10-14T23:55:54.888Z,15.97
2022-10-14T23:58:23.689Z,16.13
